sensor_id;sensor_type;location;lat;lon;timestamp;P1;durP1;ratioP1;P2;durP2;ratioP2
20298;SDS011;10308;42.688;23.256;2022-11-20T00:00:16;1.70;;;1.50;;
20298;SDS011;10308;42.688;23.256;2022-11-20T00:02:43;3.78;;;1.95;;
20298;SDS011;10308;42.688;23.256;2022-11-20T00:05:09;3.97;;;1.80;;
20298;SDS011;10308;42.688;23.256;2022-11-20T00:07:37;2.00;;;1.20;;
20298;SDS011;10308;42.688;23.256;2022-11-20T00:10:05;4.47;;;1.85;;
20298;SDS011;10308;42.688;23.256;2022-11-20T00:12:32;3.17;;;1.80;;
20298;SDS011;10308;42.688;23.256;2022-11-20T00:14:59;1.75;;;1.38;;
20298;SDS011;10308;42.688;23.256;2022-11-20T00:17:26;4.38;;;1.70;;
20298;SDS011;10308;42.688;23.256;2022-11-20T00:19:52;3.75;;;1.77;;
20298;SDS011;10308;42.688;23.256;2022-11-20T00:22:19;2.72;;;1.30;;
20298;SDS011;10308;42.688;23.256;2022-11-20T00:24:47;6.88;;;2.03;;
20298;SDS011;10308;42.688;23.256;2022-11-20T00:27:14;2.20;;;1.20;;
20298;SDS011;10308;42.688;23.256;2022-11-20T00:29:41;2.53;;;1.35;;
20298;SDS011;10308;42.688;23.256;2022-11-20T00:32:07;1.80;;;1.10;;
20298;SDS011;10308;42.688;23.256;2022-11-20T00:34:34;1.60;;;1.40;;
20298;SDS011;10308;42.688;23.256;2022-11-20T00:37:01;3.38;;;1.33;;
20298;SDS011;10308;42.688;23.256;2022-11-20T00:39:28;2.22;;;1.60;;
20298;SDS011;10308;42.688;23.256;2022-11-20T00:41:56;2.83;;;1.52;;
20298;SDS011;10308;42.688;23.256;2022-11-20T00:44:23;2.55;;;1.30;;
20298;SDS011;10308;42.688;23.256;2022-11-20T00:46:49;2.20;;;1.52;;
20298;SDS011;10308;42.688;23.256;2022-11-20T00:49:16;2.63;;;1.38;;
20298;SDS011;10308;42.688;23.256;2022-11-20T00:51:43;3.08;;;1.63;;
20298;SDS011;10308;42.688;23.256;2022-11-20T00:54:09;2.55;;;1.38;;
20298;SDS011;10308;42.688;23.256;2022-11-20T00:56:36;2.28;;;1.45;;
20298;SDS011;10308;42.688;23.256;2022-11-20T00:59:04;1.95;;;1.40;;
20298;SDS011;10308;42.688;23.256;2022-11-20T01:01:31;3.40;;;1.60;;
20298;SDS011;10308;42.688;23.256;2022-11-20T01:03:58;3.00;;;1.67;;
20298;SDS011;10308;42.688;23.256;2022-11-20T01:06:26;2.78;;;1.77;;
20298;SDS011;10308;42.688;23.256;2022-11-20T01:08:54;2.85;;;1.60;;
20298;SDS011;10308;42.688;23.256;2022-11-20T01:11:23;3.30;;;1.60;;
20298;SDS011;10308;42.688;23.256;2022-11-20T01:13:52;2.15;;;1.60;;
20298;SDS011;10308;42.688;23.256;2022-11-20T01:16:22;1.95;;;1.63;;
20298;SDS011;10308;42.688;23.256;2022-11-20T01:18:50;2.05;;;1.48;;
20298;SDS011;10308;42.688;23.256;2022-11-20T01:21:19;2.30;;;1.60;;
20298;SDS011;10308;42.688;23.256;2022-11-20T01:23:47;2.33;;;1.40;;
20298;SDS011;10308;42.688;23.256;2022-11-20T01:26:15;2.55;;;1.45;;
20298;SDS011;10308;42.688;23.256;2022-11-20T01:28:43;2.30;;;1.50;;
20298;SDS011;10308;42.688;23.256;2022-11-20T01:31:11;3.13;;;1.45;;
20298;SDS011;10308;42.688;23.256;2022-11-20T01:33:40;2.30;;;1.25;;
20298;SDS011;10308;42.688;23.256;2022-11-20T01:36:07;1.88;;;1.42;;
20298;SDS011;10308;42.688;23.256;2022-11-20T01:38:35;1.40;;;1.27;;
20298;SDS011;10308;42.688;23.256;2022-11-20T01:41:03;2.25;;;1.38;;
20298;SDS011;10308;42.688;23.256;2022-11-20T01:43:30;2.33;;;1.38;;
20298;SDS011;10308;42.688;23.256;2022-11-20T01:46:01;2.97;;;1.33;;
20298;SDS011;10308;42.688;23.256;2022-11-20T01:48:33;2.00;;;1.60;;
20298;SDS011;10308;42.688;23.256;2022-11-20T01:51:09;2.40;;;1.35;;
20298;SDS011;10308;42.688;23.256;2022-11-20T01:53:40;2.70;;;1.40;;
20298;SDS011;10308;42.688;23.256;2022-11-20T01:56:09;2.92;;;1.40;;
20298;SDS011;10308;42.688;23.256;2022-11-20T01:58:37;2.67;;;1.40;;
20298;SDS011;10308;42.688;23.256;2022-11-20T02:01:07;1.65;;;1.40;;
20298;SDS011;10308;42.688;23.256;2022-11-20T02:03:34;2.60;;;1.25;;
20298;SDS011;10308;42.688;23.256;2022-11-20T02:06:04;1.48;;;1.38;;
20298;SDS011;10308;42.688;23.256;2022-11-20T02:08:38;2.33;;;1.23;;
20298;SDS011;10308;42.688;23.256;2022-11-20T02:11:05;2.22;;;1.40;;
20298;SDS011;10308;42.688;23.256;2022-11-20T02:13:32;1.92;;;1.40;;
20298;SDS011;10308;42.688;23.256;2022-11-20T02:16:18;1.30;;;1.20;;
20298;SDS011;10308;42.688;23.256;2022-11-20T02:18:47;1.98;;;1.45;;
20298;SDS011;10308;42.688;23.256;2022-11-20T02:21:23;1.98;;;1.35;;
20298;SDS011;10308;42.688;23.256;2022-11-20T02:24:07;1.40;;;1.30;;
20298;SDS011;10308;42.688;23.256;2022-11-20T02:26:41;1.50;;;1.10;;
20298;SDS011;10308;42.688;23.256;2022-11-20T02:29:10;1.45;;;1.10;;
20298;SDS011;10308;42.688;23.256;2022-11-20T02:31:37;2.08;;;1.42;;
20298;SDS011;10308;42.688;23.256;2022-11-20T02:34:05;2.38;;;1.50;;
20298;SDS011;10308;42.688;23.256;2022-11-20T02:36:32;2.50;;;1.30;;
20298;SDS011;10308;42.688;23.256;2022-11-20T02:39:00;2.03;;;1.30;;
20298;SDS011;10308;42.688;23.256;2022-11-20T02:41:31;1.48;;;1.38;;
20298;SDS011;10308;42.688;23.256;2022-11-20T02:43:59;2.70;;;1.50;;
20298;SDS011;10308;42.688;23.256;2022-11-20T02:46:26;2.08;;;1.30;;
20298;SDS011;10308;42.688;23.256;2022-11-20T02:48:53;2.13;;;1.52;;
20298;SDS011;10308;42.688;23.256;2022-11-20T02:51:19;2.80;;;1.60;;
20298;SDS011;10308;42.688;23.256;2022-11-20T02:53:47;4.25;;;1.80;;
20298;SDS011;10308;42.688;23.256;2022-11-20T02:56:14;3.95;;;1.48;;
20298;SDS011;10308;42.688;23.256;2022-11-20T02:58:43;2.70;;;1.80;;
20298;SDS011;10308;42.688;23.256;2022-11-20T03:01:10;2.20;;;1.70;;
20298;SDS011;10308;42.688;23.256;2022-11-20T03:03:37;2.55;;;1.40;;
20298;SDS011;10308;42.688;23.256;2022-11-20T03:06:04;3.88;;;1.80;;
20298;SDS011;10308;42.688;23.256;2022-11-20T03:08:31;3.80;;;1.50;;
20298;SDS011;10308;42.688;23.256;2022-11-20T03:11:01;2.45;;;1.40;;
20298;SDS011;10308;42.688;23.256;2022-11-20T03:13:29;2.78;;;1.73;;
20298;SDS011;10308;42.688;23.256;2022-11-20T03:15:57;3.25;;;1.60;;
20298;SDS011;10308;42.688;23.256;2022-11-20T03:18:27;2.78;;;1.73;;
20298;SDS011;10308;42.688;23.256;2022-11-20T03:20:56;3.08;;;1.60;;
20298;SDS011;10308;42.688;23.256;2022-11-20T03:23:24;4.47;;;1.73;;
20298;SDS011;10308;42.688;23.256;2022-11-20T03:25:50;3.80;;;1.77;;
20298;SDS011;10308;42.688;23.256;2022-11-20T03:28:17;2.40;;;1.60;;
20298;SDS011;10308;42.688;23.256;2022-11-20T03:30:44;2.65;;;1.50;;
20298;SDS011;10308;42.688;23.256;2022-11-20T03:33:13;3.83;;;1.67;;
20298;SDS011;10308;42.688;23.256;2022-11-20T03:35:39;2.17;;;1.58;;
20298;SDS011;10308;42.688;23.256;2022-11-20T03:38:06;2.25;;;1.52;;
20298;SDS011;10308;42.688;23.256;2022-11-20T03:40:33;2.50;;;1.80;;
20298;SDS011;10308;42.688;23.256;2022-11-20T03:43:00;3.60;;;1.75;;
20298;SDS011;10308;42.688;23.256;2022-11-20T03:45:29;3.05;;;1.60;;
20298;SDS011;10308;42.688;23.256;2022-11-20T03:47:56;1.98;;;1.60;;
20298;SDS011;10308;42.688;23.256;2022-11-20T03:50:26;1.90;;;1.30;;
20298;SDS011;10308;42.688;23.256;2022-11-20T03:52:53;2.45;;;1.40;;
20298;SDS011;10308;42.688;23.256;2022-11-20T03:55:20;1.92;;;1.23;;
20298;SDS011;10308;42.688;23.256;2022-11-20T03:57:48;4.35;;;1.63;;
20298;SDS011;10308;42.688;23.256;2022-11-20T04:00:15;2.95;;;1.77;;
20298;SDS011;10308;42.688;23.256;2022-11-20T04:02:42;2.25;;;1.40;;
20298;SDS011;10308;42.688;23.256;2022-11-20T04:05:09;1.55;;;1.30;;
20298;SDS011;10308;42.688;23.256;2022-11-20T04:07:37;3.42;;;1.60;;
20298;SDS011;10308;42.688;23.256;2022-11-20T04:10:04;2.25;;;1.55;;
20298;SDS011;10308;42.688;23.256;2022-11-20T04:12:32;3.65;;;1.60;;
20298;SDS011;10308;42.688;23.256;2022-11-20T04:14:59;2.40;;;1.40;;
20298;SDS011;10308;42.688;23.256;2022-11-20T04:17:26;2.22;;;1.60;;
20298;SDS011;10308;42.688;23.256;2022-11-20T04:19:53;1.70;;;1.30;;
20298;SDS011;10308;42.688;23.256;2022-11-20T04:22:20;2.20;;;1.65;;
20298;SDS011;10308;42.688;23.256;2022-11-20T04:24:48;1.90;;;1.30;;
20298;SDS011;10308;42.688;23.256;2022-11-20T04:27:15;1.98;;;1.23;;
20298;SDS011;10308;42.688;23.256;2022-11-20T04:29:41;2.42;;;1.40;;
20298;SDS011;10308;42.688;23.256;2022-11-20T04:32:08;3.15;;;1.45;;
20298;SDS011;10308;42.688;23.256;2022-11-20T04:34:35;3.53;;;1.35;;
20298;SDS011;10308;42.688;23.256;2022-11-20T04:37:02;2.15;;;1.50;;
20298;SDS011;10308;42.688;23.256;2022-11-20T04:39:28;3.00;;;1.70;;
20298;SDS011;10308;42.688;23.256;2022-11-20T04:41:57;2.17;;;1.20;;
20298;SDS011;10308;42.688;23.256;2022-11-20T04:44:37;3.20;;;1.48;;
20298;SDS011;10308;42.688;23.256;2022-11-20T04:47:04;2.78;;;1.48;;
20298;SDS011;10308;42.688;23.256;2022-11-20T04:49:31;1.85;;;1.40;;
20298;SDS011;10308;42.688;23.256;2022-11-20T04:51:58;2.05;;;1.10;;
20298;SDS011;10308;42.688;23.256;2022-11-20T04:54:25;2.08;;;1.30;;
20298;SDS011;10308;42.688;23.256;2022-11-20T04:56:52;2.47;;;1.33;;
20298;SDS011;10308;42.688;23.256;2022-11-20T04:59:20;1.85;;;1.10;;
20298;SDS011;10308;42.688;23.256;2022-11-20T05:01:47;1.52;;;1.38;;
20298;SDS011;10308;42.688;23.256;2022-11-20T05:04:13;1.77;;;1.15;;
20298;SDS011;10308;42.688;23.256;2022-11-20T05:06:40;1.77;;;1.67;;
20298;SDS011;10308;42.688;23.256;2022-11-20T05:09:07;1.70;;;1.60;;
20298;SDS011;10308;42.688;23.256;2022-11-20T05:11:34;2.28;;;1.75;;
20298;SDS011;10308;42.688;23.256;2022-11-20T05:14:00;1.60;;;1.50;;
20298;SDS011;10308;42.688;23.256;2022-11-20T05:16:28;1.50;;;1.30;;
20298;SDS011;10308;42.688;23.256;2022-11-20T05:18:55;2.13;;;1.33;;
20298;SDS011;10308;42.688;23.256;2022-11-20T05:21:22;1.35;;;1.25;;
20298;SDS011;10308;42.688;23.256;2022-11-20T05:23:49;3.03;;;1.40;;
20298;SDS011;10308;42.688;23.256;2022-11-20T05:26:16;2.22;;;1.30;;
20298;SDS011;10308;42.688;23.256;2022-11-20T05:28:44;1.30;;;1.20;;
20298;SDS011;10308;42.688;23.256;2022-11-20T05:31:11;1.60;;;1.13;;
20298;SDS011;10308;42.688;23.256;2022-11-20T05:33:40;1.38;;;1.27;;
20298;SDS011;10308;42.688;23.256;2022-11-20T05:36:08;1.42;;;1.20;;
20298;SDS011;10308;42.688;23.256;2022-11-20T05:38:36;1.35;;;1.20;;
20298;SDS011;10308;42.688;23.256;2022-11-20T05:41:04;1.58;;;1.30;;
20298;SDS011;10308;42.688;23.256;2022-11-20T05:43:32;2.33;;;1.45;;
20298;SDS011;10308;42.688;23.256;2022-11-20T05:46:00;3.13;;;1.60;;
20298;SDS011;10308;42.688;23.256;2022-11-20T05:48:27;1.67;;;1.55;;
20298;SDS011;10308;42.688;23.256;2022-11-20T05:50:56;1.60;;;1.20;;
20298;SDS011;10308;42.688;23.256;2022-11-20T05:53:23;2.08;;;1.50;;
20298;SDS011;10308;42.688;23.256;2022-11-20T05:55:55;2.70;;;1.45;;
20298;SDS011;10308;42.688;23.256;2022-11-20T05:58:23;1.90;;;1.25;;
20298;SDS011;10308;42.688;23.256;2022-11-20T06:00:50;2.00;;;1.40;;
20298;SDS011;10308;42.688;23.256;2022-11-20T06:03:17;3.50;;;1.27;;
20298;SDS011;10308;42.688;23.256;2022-11-20T06:05:44;2.90;;;1.40;;
20298;SDS011;10308;42.688;23.256;2022-11-20T06:08:12;2.28;;;1.30;;
20298;SDS011;10308;42.688;23.256;2022-11-20T06:10:39;1.75;;;1.60;;
20298;SDS011;10308;42.688;23.256;2022-11-20T06:13:06;2.65;;;1.60;;
20298;SDS011;10308;42.688;23.256;2022-11-20T06:15:32;2.55;;;1.40;;
20298;SDS011;10308;42.688;23.256;2022-11-20T06:17:59;1.65;;;1.55;;
20298;SDS011;10308;42.688;23.256;2022-11-20T06:20:26;2.53;;;1.42;;
20298;SDS011;10308;42.688;23.256;2022-11-20T06:22:52;3.75;;;1.63;;
20298;SDS011;10308;42.688;23.256;2022-11-20T06:25:20;3.50;;;1.63;;
20298;SDS011;10308;42.688;23.256;2022-11-20T06:27:47;3.53;;;1.70;;
20298;SDS011;10308;42.688;23.256;2022-11-20T06:30:14;3.05;;;1.85;;
20298;SDS011;10308;42.688;23.256;2022-11-20T06:32:43;5.60;;;2.10;;
20298;SDS011;10308;42.688;23.256;2022-11-20T06:35:10;3.42;;;1.90;;
20298;SDS011;10308;42.688;23.256;2022-11-20T06:37:37;3.00;;;1.70;;
20298;SDS011;10308;42.688;23.256;2022-11-20T06:40:04;2.45;;;2.25;;
20298;SDS011;10308;42.688;23.256;2022-11-20T06:42:33;3.55;;;2.08;;
20298;SDS011;10308;42.688;23.256;2022-11-20T06:45:00;2.40;;;1.60;;
20298;SDS011;10308;42.688;23.256;2022-11-20T06:47:28;3.22;;;2.08;;
20298;SDS011;10308;42.688;23.256;2022-11-20T06:49:55;1.90;;;1.38;;
20298;SDS011;10308;42.688;23.256;2022-11-20T06:52:24;3.35;;;1.58;;
20298;SDS011;10308;42.688;23.256;2022-11-20T06:55:00;1.98;;;1.40;;
20298;SDS011;10308;42.688;23.256;2022-11-20T06:57:32;1.90;;;1.10;;
20298;SDS011;10308;42.688;23.256;2022-11-20T07:00:04;4.72;;;1.70;;
20298;SDS011;10308;42.688;23.256;2022-11-20T07:02:35;1.75;;;1.15;;
20298;SDS011;10308;42.688;23.256;2022-11-20T07:05:04;3.13;;;1.30;;
20298;SDS011;10308;42.688;23.256;2022-11-20T07:07:32;2.60;;;1.40;;
20298;SDS011;10308;42.688;23.256;2022-11-20T07:10:00;2.65;;;1.27;;
20298;SDS011;10308;42.688;23.256;2022-11-20T07:12:30;2.03;;;1.40;;
20298;SDS011;10308;42.688;23.256;2022-11-20T07:15:01;2.70;;;1.55;;
20298;SDS011;10308;42.688;23.256;2022-11-20T07:17:30;2.67;;;1.50;;
20298;SDS011;10308;42.688;23.256;2022-11-20T07:19:58;1.65;;;1.55;;
20298;SDS011;10308;42.688;23.256;2022-11-20T07:22:26;2.35;;;1.60;;
20298;SDS011;10308;42.688;23.256;2022-11-20T07:24:57;3.65;;;1.70;;
20298;SDS011;10308;42.688;23.256;2022-11-20T07:27:28;3.25;;;2.00;;
20298;SDS011;10308;42.688;23.256;2022-11-20T07:29:56;2.72;;;1.60;;
20298;SDS011;10308;42.688;23.256;2022-11-20T07:32:29;4.60;;;1.50;;
20298;SDS011;10308;42.688;23.256;2022-11-20T07:34:57;2.45;;;1.67;;
20298;SDS011;10308;42.688;23.256;2022-11-20T07:37:25;3.70;;;2.08;;
20298;SDS011;10308;42.688;23.256;2022-11-20T07:39:53;2.30;;;1.80;;
20298;SDS011;10308;42.688;23.256;2022-11-20T07:42:20;1.70;;;1.25;;
20298;SDS011;10308;42.688;23.256;2022-11-20T07:44:48;2.53;;;1.75;;
20298;SDS011;10308;42.688;23.256;2022-11-20T07:47:16;4.07;;;1.70;;
20298;SDS011;10308;42.688;23.256;2022-11-20T07:49:46;3.67;;;1.85;;
20298;SDS011;10308;42.688;23.256;2022-11-20T07:52:18;2.38;;;1.83;;
20298;SDS011;10308;42.688;23.256;2022-11-20T07:54:48;3.47;;;1.80;;
20298;SDS011;10308;42.688;23.256;2022-11-20T07:57:17;5.53;;;2.80;;
20298;SDS011;10308;42.688;23.256;2022-11-20T07:59:43;4.30;;;1.73;;
20298;SDS011;10308;42.688;23.256;2022-11-20T08:02:13;4.15;;;2.20;;
20298;SDS011;10308;42.688;23.256;2022-11-20T08:04:41;3.47;;;2.28;;
20298;SDS011;10308;42.688;23.256;2022-11-20T08:07:09;4.10;;;1.65;;
20298;SDS011;10308;42.688;23.256;2022-11-20T08:09:37;4.63;;;2.38;;
20298;SDS011;10308;42.688;23.256;2022-11-20T08:12:07;4.95;;;2.10;;
20298;SDS011;10308;42.688;23.256;2022-11-20T08:14:53;6.20;;;2.58;;
20298;SDS011;10308;42.688;23.256;2022-11-20T08:17:24;5.70;;;2.38;;
20298;SDS011;10308;42.688;23.256;2022-11-20T08:19:54;6.50;;;2.42;;
20298;SDS011;10308;42.688;23.256;2022-11-20T08:22:23;3.38;;;1.80;;
20298;SDS011;10308;42.688;23.256;2022-11-20T08:24:53;3.95;;;1.90;;
20298;SDS011;10308;42.688;23.256;2022-11-20T08:27:21;3.10;;;2.22;;
20298;SDS011;10308;42.688;23.256;2022-11-20T08:29:51;5.28;;;1.70;;
20298;SDS011;10308;42.688;23.256;2022-11-20T08:32:19;4.50;;;2.45;;
20298;SDS011;10308;42.688;23.256;2022-11-20T08:34:46;5.32;;;2.17;;
20298;SDS011;10308;42.688;23.256;2022-11-20T08:37:13;2.95;;;2.05;;
20298;SDS011;10308;42.688;23.256;2022-11-20T08:39:43;3.70;;;2.33;;
20298;SDS011;10308;42.688;23.256;2022-11-20T08:42:11;4.32;;;2.38;;
20298;SDS011;10308;42.688;23.256;2022-11-20T08:44:38;4.05;;;2.30;;
20298;SDS011;10308;42.688;23.256;2022-11-20T08:47:05;3.75;;;2.55;;
20298;SDS011;10308;42.688;23.256;2022-11-20T08:49:35;3.10;;;2.25;;
20298;SDS011;10308;42.688;23.256;2022-11-20T08:52:03;5.75;;;2.53;;
20298;SDS011;10308;42.688;23.256;2022-11-20T08:54:32;3.00;;;2.10;;
20298;SDS011;10308;42.688;23.256;2022-11-20T08:57:02;6.45;;;2.70;;
20298;SDS011;10308;42.688;23.256;2022-11-20T08:59:31;5.03;;;2.70;;
20298;SDS011;10308;42.688;23.256;2022-11-20T09:01:58;4.53;;;2.80;;
20298;SDS011;10308;42.688;23.256;2022-11-20T09:04:28;4.40;;;2.70;;
20298;SDS011;10308;42.688;23.256;2022-11-20T09:06:55;5.07;;;2.60;;
20298;SDS011;10308;42.688;23.256;2022-11-20T09:09:22;6.00;;;2.85;;
20298;SDS011;10308;42.688;23.256;2022-11-20T09:11:52;3.80;;;2.47;;
20298;SDS011;10308;42.688;23.256;2022-11-20T09:14:23;5.50;;;2.88;;
20298;SDS011;10308;42.688;23.256;2022-11-20T09:16:54;5.38;;;2.28;;
20298;SDS011;10308;42.688;23.256;2022-11-20T09:19:23;5.07;;;2.60;;
20298;SDS011;10308;42.688;23.256;2022-11-20T09:21:50;5.65;;;2.40;;
20298;SDS011;10308;42.688;23.256;2022-11-20T09:24:18;5.07;;;2.67;;
20298;SDS011;10308;42.688;23.256;2022-11-20T09:26:48;3.85;;;2.10;;
20298;SDS011;10308;42.688;23.256;2022-11-20T09:29:15;4.30;;;2.17;;
20298;SDS011;10308;42.688;23.256;2022-11-20T09:31:46;4.28;;;2.35;;
20298;SDS011;10308;42.688;23.256;2022-11-20T09:34:22;3.25;;;1.77;;
20298;SDS011;10308;42.688;23.256;2022-11-20T09:36:50;3.03;;;2.00;;
20298;SDS011;10308;42.688;23.256;2022-11-20T09:39:17;3.38;;;2.05;;
20298;SDS011;10308;42.688;23.256;2022-11-20T09:41:53;5.63;;;2.65;;
20298;SDS011;10308;42.688;23.256;2022-11-20T09:45:10;3.83;;;1.92;;
20298;SDS011;10308;42.688;23.256;2022-11-20T09:48:12;4.32;;;2.00;;
20298;SDS011;10308;42.688;23.256;2022-11-20T09:50:49;3.25;;;1.80;;
20298;SDS011;10308;42.688;23.256;2022-11-20T09:53:27;8.43;;;2.50;;
20298;SDS011;10308;42.688;23.256;2022-11-20T09:56:02;5.15;;;2.00;;
20298;SDS011;10308;42.688;23.256;2022-11-20T09:58:32;4.05;;;1.90;;
20298;SDS011;10308;42.688;23.256;2022-11-20T10:01:03;5.32;;;2.53;;
20298;SDS011;10308;42.688;23.256;2022-11-20T10:03:39;5.55;;;2.63;;
20298;SDS011;10308;42.688;23.256;2022-11-20T10:06:12;6.53;;;2.58;;
20298;SDS011;10308;42.688;23.256;2022-11-20T10:08:44;7.15;;;3.38;;
20298;SDS011;10308;42.688;23.256;2022-11-20T10:11:14;6.78;;;3.15;;
20298;SDS011;10308;42.688;23.256;2022-11-20T10:13:52;5.28;;;3.38;;
20298;SDS011;10308;42.688;23.256;2022-11-20T10:16:31;6.25;;;3.85;;
20298;SDS011;10308;42.688;23.256;2022-11-20T10:19:13;8.43;;;3.80;;
20298;SDS011;10308;42.688;23.256;2022-11-20T10:21:57;7.80;;;3.80;;
20298;SDS011;10308;42.688;23.256;2022-11-20T10:24:44;9.30;;;4.32;;
20298;SDS011;10308;42.688;23.256;2022-11-20T10:30:18;4.13;;;3.03;;
20298;SDS011;10308;42.688;23.256;2022-11-20T10:32:51;4.93;;;2.92;;
20298;SDS011;10308;42.688;23.256;2022-11-20T10:35:23;6.78;;;3.20;;
20298;SDS011;10308;42.688;23.256;2022-11-20T10:37:56;6.32;;;3.05;;
20298;SDS011;10308;42.688;23.256;2022-11-20T10:40:28;6.40;;;3.00;;
20298;SDS011;10308;42.688;23.256;2022-11-20T10:43:01;5.15;;;2.95;;
20298;SDS011;10308;42.688;23.256;2022-11-20T10:45:48;7.97;;;3.20;;
20298;SDS011;10308;42.688;23.256;2022-11-20T10:48:20;4.43;;;2.75;;
20298;SDS011;10308;42.688;23.256;2022-11-20T10:51:01;8.32;;;3.67;;
20298;SDS011;10308;42.688;23.256;2022-11-20T10:53:56;6.65;;;3.33;;
20298;SDS011;10308;42.688;23.256;2022-11-20T10:56:38;7.13;;;2.67;;
20298;SDS011;10308;42.688;23.256;2022-11-20T10:59:24;5.10;;;2.13;;
20298;SDS011;10308;42.688;23.256;2022-11-20T11:02:16;5.75;;;1.88;;
20298;SDS011;10308;42.688;23.256;2022-11-20T11:04:46;4.03;;;2.10;;
20298;SDS011;10308;42.688;23.256;2022-11-20T11:07:17;5.90;;;2.47;;
20298;SDS011;10308;42.688;23.256;2022-11-20T11:09:49;3.28;;;1.70;;
20298;SDS011;10308;42.688;23.256;2022-11-20T11:12:19;2.95;;;1.52;;
20298;SDS011;10308;42.688;23.256;2022-11-20T11:14:48;2.58;;;1.88;;
20298;SDS011;10308;42.688;23.256;2022-11-20T11:17:21;3.42;;;1.70;;
20298;SDS011;10308;42.688;23.256;2022-11-20T11:19:59;2.78;;;1.38;;
20298;SDS011;10308;42.688;23.256;2022-11-20T11:22:29;3.00;;;1.95;;
20298;SDS011;10308;42.688;23.256;2022-11-20T11:24:58;3.28;;;1.52;;
20298;SDS011;10308;42.688;23.256;2022-11-20T11:27:26;2.00;;;1.30;;
20298;SDS011;10308;42.688;23.256;2022-11-20T11:30:02;3.38;;;1.70;;
20298;SDS011;10308;42.688;23.256;2022-11-20T11:32:39;2.53;;;1.52;;
20298;SDS011;10308;42.688;23.256;2022-11-20T11:35:18;4.45;;;1.35;;
20298;SDS011;10308;42.688;23.256;2022-11-20T11:38:03;2.65;;;1.50;;
20298;SDS011;10308;42.688;23.256;2022-11-20T11:40:35;1.73;;;1.35;;
20298;SDS011;10308;42.688;23.256;2022-11-20T11:43:04;2.17;;;1.30;;
20298;SDS011;10308;42.688;23.256;2022-11-20T11:45:56;3.42;;;1.95;;
20298;SDS011;10308;42.688;23.256;2022-11-20T11:48:23;2.42;;;1.50;;
20298;SDS011;10308;42.688;23.256;2022-11-20T11:50:50;1.70;;;1.30;;
20298;SDS011;10308;42.688;23.256;2022-11-20T11:53:21;2.28;;;1.40;;
20298;SDS011;10308;42.688;23.256;2022-11-20T11:55:49;3.42;;;1.63;;
20298;SDS011;10308;42.688;23.256;2022-11-20T11:58:23;3.22;;;1.40;;
20298;SDS011;10308;42.688;23.256;2022-11-20T12:01:04;4.15;;;2.15;;
20298;SDS011;10308;42.688;23.256;2022-11-20T12:03:35;4.82;;;1.77;;
20298;SDS011;10308;42.688;23.256;2022-11-20T12:06:05;2.92;;;1.42;;
20298;SDS011;10308;42.688;23.256;2022-11-20T12:08:40;3.00;;;1.33;;
20298;SDS011;10308;42.688;23.256;2022-11-20T12:11:13;2.60;;;1.20;;
20298;SDS011;10308;42.688;23.256;2022-11-20T12:13:46;2.58;;;1.40;;
20298;SDS011;10308;42.688;23.256;2022-11-20T12:16:18;3.28;;;1.50;;
20298;SDS011;10308;42.688;23.256;2022-11-20T12:18:46;4.05;;;1.40;;
20298;SDS011;10308;42.688;23.256;2022-11-20T12:21:18;2.97;;;1.40;;
20298;SDS011;10308;42.688;23.256;2022-11-20T12:23:56;2.95;;;1.50;;
20298;SDS011;10308;42.688;23.256;2022-11-20T12:26:39;4.03;;;1.90;;
20298;SDS011;10308;42.688;23.256;2022-11-20T12:29:18;3.47;;;1.80;;
20298;SDS011;10308;42.688;23.256;2022-11-20T12:31:55;3.38;;;1.30;;
20298;SDS011;10308;42.688;23.256;2022-11-20T12:34:40;3.22;;;1.20;;
20298;SDS011;10308;42.688;23.256;2022-11-20T12:37:18;3.63;;;1.30;;
20298;SDS011;10308;42.688;23.256;2022-11-20T12:40:04;2.58;;;1.25;;
20298;SDS011;10308;42.688;23.256;2022-11-20T12:42:44;3.10;;;1.38;;
20298;SDS011;10308;42.688;23.256;2022-11-20T12:51:23;3.08;;;1.52;;
20298;SDS011;10308;42.688;23.256;2022-11-20T12:54:21;3.97;;;1.73;;
20298;SDS011;10308;42.688;23.256;2022-11-20T12:57:03;3.00;;;1.23;;
20298;SDS011;10308;42.688;23.256;2022-11-20T12:59:46;2.95;;;1.60;;
20298;SDS011;10308;42.688;23.256;2022-11-20T13:02:25;2.03;;;1.55;;
20298;SDS011;10308;42.688;23.256;2022-11-20T13:05:09;2.85;;;1.80;;
20298;SDS011;10308;42.688;23.256;2022-11-20T13:07:53;2.25;;;1.17;;
20298;SDS011;10308;42.688;23.256;2022-11-20T13:10:25;2.92;;;1.45;;
20298;SDS011;10308;42.688;23.256;2022-11-20T13:13:01;3.88;;;1.50;;
20298;SDS011;10308;42.688;23.256;2022-11-20T13:15:36;3.88;;;2.33;;
20298;SDS011;10308;42.688;23.256;2022-11-20T13:18:12;6.70;;;3.42;;
20298;SDS011;10308;42.688;23.256;2022-11-20T13:20:42;7.03;;;5.80;;
20298;SDS011;10308;42.688;23.256;2022-11-20T13:23:22;14.13;;;10.38;;
20298;SDS011;10308;42.688;23.256;2022-11-20T13:25:50;11.20;;;8.40;;
20298;SDS011;10308;42.688;23.256;2022-11-20T13:28:30;8.27;;;6.60;;
20298;SDS011;10308;42.688;23.256;2022-11-20T13:30:58;6.47;;;5.53;;
20298;SDS011;10308;42.688;23.256;2022-11-20T13:33:31;3.75;;;2.67;;
20298;SDS011;10308;42.688;23.256;2022-11-20T13:36:00;4.32;;;2.38;;
20298;SDS011;10308;42.688;23.256;2022-11-20T13:38:43;4.00;;;2.00;;
20298;SDS011;10308;42.688;23.256;2022-11-20T13:41:22;4.40;;;2.20;;
20298;SDS011;10308;42.688;23.256;2022-11-20T13:44:13;3.40;;;2.20;;
20298;SDS011;10308;42.688;23.256;2022-11-20T13:46:41;3.63;;;2.20;;
20298;SDS011;10308;42.688;23.256;2022-11-20T13:49:17;4.88;;;2.55;;
20298;SDS011;10308;42.688;23.256;2022-11-20T13:51:49;2.55;;;2.20;;
20298;SDS011;10308;42.688;23.256;2022-11-20T13:54:24;3.97;;;2.78;;
20298;SDS011;10308;42.688;23.256;2022-11-20T14:00:43;4.18;;;2.72;;
20298;SDS011;10308;42.688;23.256;2022-11-20T14:03:18;3.25;;;2.10;;
20298;SDS011;10308;42.688;23.256;2022-11-20T14:05:49;3.90;;;2.33;;
20298;SDS011;10308;42.688;23.256;2022-11-20T14:08:23;2.97;;;2.35;;
20298;SDS011;10308;42.688;23.256;2022-11-20T14:11:02;3.20;;;2.30;;
20298;SDS011;10308;42.688;23.256;2022-11-20T14:13:33;4.10;;;2.20;;
20298;SDS011;10308;42.688;23.256;2022-11-20T14:16:02;4.35;;;2.65;;
20298;SDS011;10308;42.688;23.256;2022-11-20T14:18:29;4.22;;;3.38;;
20298;SDS011;10308;42.688;23.256;2022-11-20T14:20:56;4.93;;;2.80;;
20298;SDS011;10308;42.688;23.256;2022-11-20T14:23:30;3.10;;;2.70;;
20298;SDS011;10308;42.688;23.256;2022-11-20T14:25:59;4.20;;;3.13;;
20298;SDS011;10308;42.688;23.256;2022-11-20T14:28:27;5.38;;;2.20;;
20298;SDS011;10308;42.688;23.256;2022-11-20T14:30:56;1.90;;;1.70;;
20298;SDS011;10308;42.688;23.256;2022-11-20T14:33:26;2.42;;;1.70;;
20298;SDS011;10308;42.688;23.256;2022-11-20T14:35:55;2.08;;;1.83;;
20298;SDS011;10308;42.688;23.256;2022-11-20T14:38:27;1.60;;;1.30;;
20298;SDS011;10308;42.688;23.256;2022-11-20T14:41:09;2.65;;;1.50;;
20298;SDS011;10308;42.688;23.256;2022-11-20T14:43:48;3.33;;;1.60;;
20298;SDS011;10308;42.688;23.256;2022-11-20T14:46:19;2.10;;;1.90;;
20298;SDS011;10308;42.688;23.256;2022-11-20T14:48:50;3.00;;;2.05;;
20298;SDS011;10308;42.688;23.256;2022-11-20T14:51:29;2.10;;;1.90;;
20298;SDS011;10308;42.688;23.256;2022-11-20T14:54:07;2.45;;;2.00;;
20298;SDS011;10308;42.688;23.256;2022-11-20T14:56:38;2.17;;;1.73;;
20298;SDS011;10308;42.688;23.256;2022-11-20T14:59:05;3.35;;;2.00;;
20298;SDS011;10308;42.688;23.256;2022-11-20T15:01:38;2.10;;;1.88;;
20298;SDS011;10308;42.688;23.256;2022-11-20T15:04:09;2.83;;;2.05;;
20298;SDS011;10308;42.688;23.256;2022-11-20T15:06:37;2.55;;;2.30;;